Time;durP1;ratioP1;P1;durP2;ratioP2;P2;SDS_P1;SDS_P2;PMS_P1;PMS_P2;Temp;Humidity;BMP_temperature;BMP_pressure;BME280_temperature;BME280_humidity;BME280_pressure;Samples;Min_cycle;Max_cycle;Signal;HPM_P1;HPM_P2
2021/06/10 00:00:21;;;;;;;10.90;7.78;;;;;;;;;;5031639;28;20095;-61
2021/06/10 00:02:49;;;;;;;12.48;8.20;;;;;;;;;;5032423;28;20077;-61
2021/06/10 00:05:19;;;;;;;9.63;7.93;;;;;;;;;;5025314;28;20128;-61
2021/06/10 00:07:48;;;;;;;9.90;7.93;;;;;;;;;;5030615;28;20132;-61
2021/06/10 00:10:18;;;;;;;12.85;8.27;;;;;;;;;;5031753;28;20409;-61
2021/06/10 00:12:48;;;;;;;11.68;8.65;;;;;;;;;;5030692;28;20071;-61
2021/06/10 00:15:17;;;;;;;11.40;7.93;;;;;;;;;;5031649;28;20441;-61
2021/06/10 00:17:45;;;;;;;11.43;8.82;;;;;;;;;;5030120;28;20148;-61
2021/06/10 00:20:14;;;;;;;11.18;7.97;;;;;;;;;;5014036;28;20353;-61
2021/06/10 00:22:42;;;;;;;9.00;7.63;;;;;;;;;;5029254;28;20459;-61
2021/06/10 00:25:10;;;;;;;13.80;8.48;;;;;;;;;;5032415;28;20143;-61
2021/06/10 00:27:39;;;;;;;8.93;7.97;;;;;;;;;;5022860;28;20601;-61
2021/06/10 00:30:10;;;;;;;10.65;8.18;;;;;;;;;;5031999;28;20060;-61
2021/06/10 00:32:38;;;;;;;9.68;7.50;;;;;;;;;;5030272;28;20128;-61
2021/06/10 00:35:06;;;;;;;9.68;8.13;;;;;;;;;;5031486;28;20077;-61
2021/06/10 00:37:34;;;;;;;12.43;8.23;;;;;;;;;;5016090;28;20128;-61
2021/06/10 00:40:02;;;;;;;8.60;7.35;;;;;;;;;;5031875;28;20054;-61
2021/06/10 00:42:30;;;;;;;11.63;7.75;;;;;;;;;;5028924;28;20056;-61
2021/06/10 00:44:58;;;;;;;10.80;7.93;;;;;;;;;;5031952;28;20137;-61
2021/06/10 00:47:27;;;;;;;11.75;8.65;;;;;;;;;;5029636;28;20128;-61
2021/06/10 00:49:55;;;;;;;12.20;8.20;;;;;;;;;;5031901;28;20087;-61
2021/06/10 00:52:23;;;;;;;11.45;8.35;;;;;;;;;;5030251;28;20308;-61
2021/06/10 00:54:51;;;;;;;16.02;9.38;;;;;;;;;;5033431;28;20103;-61
2021/06/10 00:57:18;;;;;;;12.15;8.88;;;;;;;;;;5030004;28;20132;-61
2021/06/10 00:59:46;;;;;;;13.90;8.98;;;;;;;;;;5032539;28;20045;-61
2021/06/10 01:02:14;;;;;;;10.77;8.23;;;;;;;;;;5059819;22;20083;-88
2021/06/10 01:04:44;;;;;;;12.73;8.30;;;;;;;;;;5054995;28;20527;-88
2021/06/10 01:07:15;;;;;;;17.42;9.45;;;;;;;;;;5037277;28;20136;-88
2021/06/10 01:09:46;;;;;;;14.55;9.27;;;;;;;;;;5056485;28;20143;-88
2021/06/10 01:12:16;;;;;;;11.65;8.77;;;;;;;;;;5056445;28;20067;-88
2021/06/10 01:14:45;;;;;;;16.67;8.68;;;;;;;;;;5055734;28;20045;-87
2021/06/10 01:17:13;;;;;;;14.05;9.35;;;;;;;;;;5056101;28;20139;-87
2021/06/10 01:19:55;;;;;;;11.45;8.50;;;;;;;;;;5055259;28;20076;-87
2021/06/10 01:22:27;;;;;;;11.63;9.27;;;;;;;;;;5055080;28;20099;-87
2021/06/10 01:24:58;;;;;;;11.88;9.10;;;;;;;;;;5054855;28;20091;-87
2021/06/10 01:27:28;;;;;;;10.95;8.40;;;;;;;;;;5056171;28;20052;-86
2021/06/10 01:29:58;;;;;;;11.60;8.90;;;;;;;;;;5055503;28;20088;-87
2021/06/10 01:32:27;;;;;;;13.65;9.75;;;;;;;;;;5052214;28;20087;-88
2021/06/10 01:34:56;;;;;;;14.27;10.02;;;;;;;;;;5052039;28;20084;-88
2021/06/10 01:37:24;;;;;;;14.63;9.50;;;;;;;;;;5035684;28;20053;-87
2021/06/10 01:39:53;;;;;;;12.07;9.55;;;;;;;;;;5022171;28;20048;-88
2021/06/10 01:42:21;;;;;;;13.30;8.82;;;;;;;;;;5020367;28;20080;-88
2021/06/10 01:44:52;;;;;;;12.02;9.63;;;;;;;;;;5019460;28;20452;-87
2021/06/10 01:47:24;;;;;;;13.25;9.48;;;;;;;;;;5027023;28;20060;-87
2021/06/10 01:49:52;;;;;;;14.27;9.98;;;;;;;;;;5028248;28;20140;-88
2021/06/10 01:52:20;;;;;;;15.13;9.70;;;;;;;;;;5018494;28;20088;-88
2021/06/10 01:54:49;;;;;;;13.13;9.75;;;;;;;;;;5018523;28;20115;-87
2021/06/10 01:57:17;;;;;;;13.82;9.70;;;;;;;;;;5028250;28;20081;-88
2021/06/10 01:59:46;;;;;;;15.93;10.07;;;;;;;;;;5031966;28;20450;-88
2021/06/10 02:02:15;;;;;;;14.15;9.52;;;;;;;;;;5032648;28;20056;-87
2021/06/10 02:04:44;;;;;;;13.27;9.10;;;;;;;;;;5032797;28;20072;-88
2021/06/10 02:07:11;;;;;;;12.27;9.43;;;;;;;;;;5031866;28;20133;-87
2021/06/10 02:09:41;;;;;;;14.45;9.73;;;;;;;;;;5030886;28;20072;-88
2021/06/10 02:12:10;;;;;;;13.52;10.55;;;;;;;;;;5015599;28;20136;-88
2021/06/10 02:14:40;;;;;;;15.27;11.93;;;;;;;;;;5033464;28;20130;-89
2021/06/10 02:17:08;;;;;;;14.70;10.55;;;;;;;;;;5039840;28;20144;-89
2021/06/10 02:19:38;;;;;;;18.10;11.45;;;;;;;;;;5055140;28;20107;-88
2021/06/10 02:22:06;;;;;;;13.50;10.40;;;;;;;;;;5051294;28;20060;-89
2021/06/10 02:24:34;;;;;;;13.82;10.20;;;;;;;;;;5052905;28;20084;-88
2021/06/10 02:27:02;;;;;;;14.75;10.77;;;;;;;;;;5051528;28;20055;-88
2021/06/10 02:29:30;;;;;;;13.52;10.25;;;;;;;;;;5052604;28;20045;-88
2021/06/10 02:31:59;;;;;;;15.43;10.07;;;;;;;;;;5051123;28;20064;-89
2021/06/10 02:34:28;;;;;;;13.18;10.32;;;;;;;;;;5051665;28;20045;-88
2021/06/10 02:36:57;;;;;;;14.90;10.75;;;;;;;;;;5043026;28;20060;-89
2021/06/10 02:39:25;;;;;;;13.25;10.38;;;;;;;;;;5026375;28;20684;-88
2021/06/10 02:41:53;;;;;;;13.75;10.30;;;;;;;;;;5026018;28;20057;-89
2021/06/10 02:44:21;;;;;;;14.27;10.32;;;;;;;;;;5012725;28;20054;-89
2021/06/10 02:46:49;;;;;;;16.45;10.77;;;;;;;;;;5033611;28;20064;-90
2021/06/10 02:49:18;;;;;;;14.43;10.30;;;;;;;;;;5052283;28;20045;-88
2021/06/10 02:51:46;;;;;;;15.35;11.00;;;;;;;;;;5051374;28;20048;-89
2021/06/10 02:54:18;;;;;;;12.73;10.10;;;;;;;;;;5053126;28;20788;-89
2021/06/10 02:56:46;;;;;;;19.67;10.80;;;;;;;;;;5044017;28;20100;-89
2021/06/10 02:59:15;;;;;;;16.23;11.15;;;;;;;;;;5030300;28;20128;-89
2021/06/10 03:01:44;;;;;;;16.13;10.38;;;;;;;;;;5029571;28;20045;-89
2021/06/10 03:04:13;;;;;;;14.18;10.77;;;;;;;;;;5025315;28;20064;-89
2021/06/10 03:06:42;;;;;;;13.90;10.30;;;;;;;;;;5039837;28;20049;-88
2021/06/10 03:09:11;;;;;;;15.38;10.65;;;;;;;;;;5054877;28;20057;-89
2021/06/10 03:11:42;;;;;;;15.48;10.57;;;;;;;;;;5055923;28;20048;-89
2021/06/10 03:14:10;;;;;;;18.33;10.98;;;;;;;;;;5056301;28;20052;-89
2021/06/10 03:16:40;;;;;;;14.98;9.80;;;;;;;;;;5051746;28;20041;-89
2021/06/10 03:19:08;;;;;;;16.02;10.90;;;;;;;;;;5032838;28;20100;-89
2021/06/10 03:21:36;;;;;;;14.10;9.93;;;;;;;;;;5028651;28;20061;-90
2021/06/10 03:24:05;;;;;;;14.80;11.27;;;;;;;;;;5015059;28;20061;-89
2021/06/10 03:26:35;;;;;;;15.70;11.13;;;;;;;;;;5038111;28;20041;-90
2021/06/10 03:29:06;;;;;;;16.55;11.07;;;;;;;;;;5054233;28;20450;-89
2021/06/10 03:31:34;;;;;;;16.08;11.20;;;;;;;;;;5053783;28;20140;-89
2021/06/10 03:34:02;;;;;;;17.27;11.30;;;;;;;;;;5054803;28;20045;-89
2021/06/10 03:36:31;;;;;;;16.55;11.88;;;;;;;;;;5047855;28;20591;-89
2021/06/10 03:38:59;;;;;;;14.90;11.23;;;;;;;;;;5021316;28;20076;-89
2021/06/10 03:41:28;;;;;;;15.55;11.15;;;;;;;;;;5031393;28;20062;-89
2021/06/10 03:43:56;;;;;;;14.98;11.60;;;;;;;;;;5021615;28;20524;-89
2021/06/10 03:46:25;;;;;;;21.38;13.85;;;;;;;;;;5030021;28;20080;-90
2021/06/10 03:48:54;;;;;;;16.30;12.50;;;;;;;;;;5051283;28;20048;-90
2021/06/10 03:51:22;;;;;;;18.83;12.45;;;;;;;;;;5054244;28;20053;-89
2021/06/10 03:53:51;;;;;;;14.93;11.57;;;;;;;;;;5048567;28;20103;-90
2021/06/10 03:56:19;;;;;;;16.20;11.50;;;;;;;;;;5050994;28;20114;-89
2021/06/10 03:58:47;;;;;;;16.98;11.73;;;;;;;;;;5033489;28;20054;-89
2021/06/10 04:01:14;;;;;;;18.52;12.63;;;;;;;;;;5032342;28;20136;-89
2021/06/10 04:03:44;;;;;;;14.65;11.30;;;;;;;;;;5032710;28;20049;-89
2021/06/10 04:06:15;;;;;;;17.23;11.85;;;;;;;;;;5032197;28;20053;-89
2021/06/10 04:08:42;;;;;;;17.73;13.13;;;;;;;;;;5033720;28;20099;-89
2021/06/10 04:11:10;;;;;;;17.73;12.57;;;;;;;;;;5022882;28;20481;-90
2021/06/10 04:13:38;;;;;;;21.25;13.60;;;;;;;;;;5032683;28;20136;-90
2021/06/10 04:16:06;;;;;;;22.10;15.88;;;;;;;;;;5032346;28;20120;-89
2021/06/10 04:18:34;;;;;;;19.55;12.48;;;;;;;;;;5031415;28;20077;-89
2021/06/10 04:21:04;;;;;;;16.70;12.38;;;;;;;;;;5023902;28;20049;-89
2021/06/10 04:23:31;;;;;;;21.65;13.70;;;;;;;;;;5032737;28;20140;-90
2021/06/10 04:25:59;;;;;;;17.30;12.15;;;;;;;;;;5031874;28;20076;-90
2021/06/10 04:28:27;;;;;;;17.27;12.23;;;;;;;;;;5032553;28;20132;-90
2021/06/10 04:30:55;;;;;;;14.23;11.80;;;;;;;;;;5030241;28;20064;-90
2021/06/10 04:33:24;;;;;;;19.67;13.80;;;;;;;;;;5034050;28;20046;-90
2021/06/10 04:35:52;;;;;;;16.48;12.05;;;;;;;;;;5034968;28;20103;-89
2021/06/10 04:38:21;;;;;;;18.35;12.40;;;;;;;;;;5051962;28;20105;-92
2021/06/10 04:40:50;;;;;;;20.58;13.50;;;;;;;;;;5042381;28;20045;-90
2021/06/10 04:43:18;;;;;;;18.13;12.18;;;;;;;;;;5034601;28;20091;-90
2021/06/10 04:45:46;;;;;;;19.05;12.98;;;;;;;;;;5052341;28;20475;-90
2021/06/10 04:48:14;;;;;;;16.52;12.70;;;;;;;;;;5024452;28;20140;-90
2021/06/10 04:50:42;;;;;;;23.85;12.68;;;;;;;;;;5019500;28;20128;-90
2021/06/10 04:53:10;;;;;;;18.17;12.75;;;;;;;;;;5032248;28;20057;-91
2021/06/10 04:55:40;;;;;;;19.90;13.73;;;;;;;;;;5030860;28;20061;-90
2021/06/10 04:58:08;;;;;;;19.20;12.25;;;;;;;;;;5048546;28;20057;-90
2021/06/10 05:00:38;;;;;;;18.95;12.10;;;;;;;;;;5052522;28;20130;-91
2021/06/10 05:03:06;;;;;;;20.42;14.07;;;;;;;;;;5048072;28;20116;-91
2021/06/10 05:05:34;;;;;;;20.17;13.73;;;;;;;;;;5052172;28;20076;-89
2021/06/10 05:08:03;;;;;;;16.90;11.48;;;;;;;;;;5048438;28;20466;-90
2021/06/10 05:10:30;;;;;;;18.95;12.27;;;;;;;;;;5041535;28;20111;-89
2021/06/10 05:13:00;;;;;;;15.38;11.85;;;;;;;;;;5043326;28;20052;-88
2021/06/10 05:15:28;;;;;;;16.60;11.80;;;;;;;;;;5050728;28;20057;-90
2021/06/10 05:17:56;;;;;;;16.77;12.40;;;;;;;;;;5052154;28;20055;-90
2021/06/10 05:20:25;;;;;;;19.25;13.63;;;;;;;;;;5052120;28;20060;-89
2021/06/10 05:22:53;;;;;;;21.30;14.73;;;;;;;;;;5051246;28;20110;-90
2021/06/10 05:25:21;;;;;;;17.25;13.20;;;;;;;;;;5051910;28;20053;-89
2021/06/10 05:27:48;;;;;;;21.08;13.02;;;;;;;;;;5032298;28;20049;-89
2021/06/10 05:30:19;;;;;;;19.20;13.52;;;;;;;;;;5029403;28;20107;-88
2021/06/10 05:32:47;;;;;;;17.80;13.38;;;;;;;;;;5018235;28;20081;-87
2021/06/10 05:35:15;;;;;;;16.48;13.18;;;;;;;;;;5013578;28;20567;-87
2021/06/10 05:37:43;;;;;;;17.40;13.23;;;;;;;;;;5020093;28;20152;-88
2021/06/10 05:40:11;;;;;;;19.33;14.25;;;;;;;;;;5029750;28;20128;-89
2021/06/10 05:42:39;;;;;;;16.98;12.52;;;;;;;;;;5010624;28;20045;-87
2021/06/10 05:45:07;;;;;;;15.85;12.25;;;;;;;;;;5028941;28;20445;-87
2021/06/10 05:47:36;;;;;;;20.00;12.93;;;;;;;;;;5039329;28;20064;-86
2021/06/10 05:50:05;;;;;;;18.52;13.05;;;;;;;;;;5046303;28;20073;-86
2021/06/10 05:52:33;;;;;;;20.55;13.93;;;;;;;;;;5049479;28;20558;-87
2021/06/10 05:55:01;;;;;;;18.35;12.85;;;;;;;;;;5044349;28;20187;-87
2021/06/10 05:57:29;;;;;;;16.88;11.52;;;;;;;;;;5046849;28;20065;-87
2021/06/10 05:59:57;;;;;;;21.85;13.70;;;;;;;;;;5049568;28;20048;-85
2021/06/10 06:02:25;;;;;;;22.63;17.08;;;;;;;;;;5045543;28;20114;-85
2021/06/10 06:04:55;;;;;;;24.45;16.02;;;;;;;;;;5046167;28;20053;-86
2021/06/10 06:07:22;;;;;;;24.02;14.23;;;;;;;;;;5041151;28;20137;-86
2021/06/10 06:09:50;;;;;;;21.33;14.25;;;;;;;;;;5043826;28;20142;-85
2021/06/10 06:12:21;;;;;;;25.40;15.20;;;;;;;;;;5045870;28;20548;-87
2021/06/10 06:14:49;;;;;;;20.63;14.48;;;;;;;;;;5044804;28;20049;-86
2021/06/10 06:17:17;;;;;;;20.95;14.30;;;;;;;;;;5019672;28;20745;-84
2021/06/10 06:19:45;;;;;;;25.45;16.50;;;;;;;;;;5026441;28;20140;-85
2021/06/10 06:22:15;;;;;;;21.55;16.23;;;;;;;;;;5024440;28;20049;-86
2021/06/10 06:24:43;;;;;;;23.20;15.80;;;;;;;;;;5027432;28;20144;-84
2021/06/10 06:27:12;;;;;;;21.95;15.07;;;;;;;;;;5024615;28;20072;-85
2021/06/10 06:29:40;;;;;;;21.65;15.93;;;;;;;;;;5008604;28;20509;-85
2021/06/10 06:32:08;;;;;;;19.67;14.65;;;;;;;;;;5023942;28;20046;-85
2021/06/10 06:34:36;;;;;;;22.85;14.88;;;;;;;;;;5026187;28;20222;-85
2021/06/10 06:37:05;;;;;;;22.38;15.02;;;;;;;;;;5025411;28;20052;-86
2021/06/10 06:39:34;;;;;;;20.92;14.90;;;;;;;;;;5025448;28;20137;-85
2021/06/10 06:42:02;;;;;;;19.45;12.98;;;;;;;;;;5026335;28;20073;-84
2021/06/10 06:44:30;;;;;;;22.42;14.93;;;;;;;;;;5027316;28;20124;-85
2021/06/10 06:46:58;;;;;;;20.10;14.07;;;;;;;;;;5026361;28;20076;-86
2021/06/10 06:49:26;;;;;;;17.85;12.77;;;;;;;;;;5029682;28;20603;-84
2021/06/10 06:51:54;;;;;;;22.27;14.48;;;;;;;;;;5027971;28;20108;-85
2021/06/10 06:54:22;;;;;;;22.83;14.75;;;;;;;;;;5028517;28;20127;-84
2021/06/10 06:56:51;;;;;;;20.02;14.32;;;;;;;;;;5036299;28;20122;-85
2021/06/10 06:59:19;;;;;;;18.20;13.27;;;;;;;;;;5044757;28;20116;-83
2021/06/10 07:01:47;;;;;;;19.23;13.35;;;;;;;;;;5050334;28;20103;-85
2021/06/10 07:04:16;;;;;;;18.38;14.10;;;;;;;;;;5050071;28;20650;-86
2021/06/10 07:06:44;;;;;;;23.55;14.50;;;;;;;;;;5050215;28;20111;-85
2021/06/10 07:09:12;;;;;;;22.25;13.93;;;;;;;;;;5046491;28;20540;-84
2021/06/10 07:11:40;;;;;;;17.40;12.45;;;;;;;;;;5046966;28;20068;-84
2021/06/10 07:14:10;;;;;;;18.48;12.35;;;;;;;;;;5048549;28;20045;-85
2021/06/10 07:16:42;;;;;;;17.15;12.25;;;;;;;;;;5049766;28;20110;-85
2021/06/10 07:19:11;;;;;;;17.05;12.50;;;;;;;;;;5050736;28;20159;-86
2021/06/10 07:21:43;;;;;;;21.48;12.75;;;;;;;;;;5050493;28;20489;-85
2021/06/10 07:24:11;;;;;;;16.80;12.57;;;;;;;;;;5050282;28;20056;-87
2021/06/10 07:26:40;;;;;;;15.82;11.38;;;;;;;;;;5048427;28;20500;-84
2021/06/10 07:29:09;;;;;;;13.90;10.32;;;;;;;;;;5049908;28;20059;-84
2021/06/10 07:31:37;;;;;;;16.33;12.07;;;;;;;;;;5050108;28;20045;-84
2021/06/10 07:34:06;;;;;;;13.70;11.35;;;;;;;;;;5047938;28;20045;-85
2021/06/10 07:36:37;;;;;;;20.83;12.15;;;;;;;;;;5030966;28;20053;-85
2021/06/10 07:39:07;;;;;;;14.13;11.13;;;;;;;;;;5046844;28;20045;-85
2021/06/10 07:41:35;;;;;;;14.13;11.07;;;;;;;;;;5050289;28;20095;-86
2021/06/10 07:44:03;;;;;;;13.88;10.48;;;;;;;;;;5047602;28;20476;-85
2021/06/10 07:46:33;;;;;;;11.18;9.43;;;;;;;;;;5048304;28;20049;-85
2021/06/10 07:49:01;;;;;;;13.02;10.18;;;;;;;;;;5049283;28;20068;-85
2021/06/10 07:51:29;;;;;;;13.57;9.45;;;;;;;;;;5048837;28;20055;-85
2021/06/10 07:53:58;;;;;;;15.02;10.10;;;;;;;;;;5047238;28;20052;-85
2021/06/10 07:56:26;;;;;;;13.52;9.25;;;;;;;;;;5048252;28;20126;-87
2021/06/10 07:58:54;;;;;;;14.38;11.00;;;;;;;;;;5046680;28;20044;-86
2021/06/10 08:01:22;;;;;;;12.45;9.05;;;;;;;;;;5045118;28;20131;-85
2021/06/10 08:03:52;;;;;;;13.70;9.50;;;;;;;;;;5048664;28;20053;-85
2021/06/10 08:06:20;;;;;;;11.35;9.50;;;;;;;;;;5046086;28;20056;-85
2021/06/10 08:08:49;;;;;;;12.80;9.15;;;;;;;;;;5031650;28;20063;-86
2021/06/10 08:11:17;;;;;;;16.10;10.10;;;;;;;;;;5033468;28;20111;-85
2021/06/10 08:13:45;;;;;;;12.43;9.00;;;;;;;;;;5047218;28;20045;-86
2021/06/10 08:16:13;;;;;;;12.57;9.20;;;;;;;;;;5038776;28;20061;-86
2021/06/10 08:18:41;;;;;;;12.13;8.98;;;;;;;;;;5049874;28;20053;-86
2021/06/10 08:21:11;;;;;;;13.73;10.35;;;;;;;;;;5048827;28;20575;-85
2021/06/10 08:23:39;;;;;;;12.98;10.10;;;;;;;;;;5049789;28;20107;-86
2021/06/10 08:26:08;;;;;;;16.17;10.93;;;;;;;;;;5047225;28;20060;-86
2021/06/10 08:28:37;;;;;;;13.90;9.93;;;;;;;;;;5016095;28;20057;-86
2021/06/10 08:31:05;;;;;;;12.73;9.70;;;;;;;;;;5017774;28;20060;-87
2021/06/10 08:33:34;;;;;;;12.57;10.35;;;;;;;;;;5026410;28;20045;-85
2021/06/10 08:36:02;;;;;;;15.75;11.13;;;;;;;;;;5021044;28;20041;-86
2021/06/10 08:38:31;;;;;;;17.95;11.23;;;;;;;;;;5048848;28;20044;-88
2021/06/10 08:41:00;;;;;;;17.00;10.55;;;;;;;;;;5049007;28;20591;-87
2021/06/10 08:43:29;;;;;;;15.38;10.43;;;;;;;;;;5052375;28;20129;-87
2021/06/10 08:46:00;;;;;;;16.55;10.32;;;;;;;;;;5048409;28;20498;-87
2021/06/10 08:48:32;;;;;;;12.18;10.63;;;;;;;;;;5032421;28;20045;-86
2021/06/10 08:51:01;;;;;;;14.32;10.15;;;;;;;;;;5035277;28;20184;-86
2021/06/10 08:53:29;;;;;;;16.95;11.20;;;;;;;;;;5030143;28;20049;-86
2021/06/10 08:55:59;;;;;;;14.73;10.27;;;;;;;;;;5029119;28;20045;-86
2021/06/10 08:58:28;;;;;;;16.90;12.13;;;;;;;;;;5021242;28;20053;-85
2021/06/10 09:00:58;;;;;;;15.73;10.65;;;;;;;;;;5026429;28;20509;-87
2021/06/10 09:03:29;;;;;;;12.98;9.48;;;;;;;;;;5030093;28;20140;-87
2021/06/10 09:06:02;;;;;;;14.85;9.82;;;;;;;;;;5026956;28;20100;-86
2021/06/10 09:08:30;;;;;;;15.25;10.65;;;;;;;;;;5029361;28;20049;-86
2021/06/10 09:11:07;;;;;;;12.05;9.30;;;;;;;;;;5030432;28;20103;-87
2021/06/10 09:13:43;;;;;;;11.48;9.82;;;;;;;;;;5029508;28;20103;-87
2021/06/10 09:16:32;;;;;;;12.73;9.95;;;;;;;;;;5028600;28;20063;-87
2021/06/10 09:19:02;;;;;;;19.60;10.73;;;;;;;;;;5024619;28;20057;-87
2021/06/10 09:21:31;;;;;;;14.57;10.25;;;;;;;;;;5029560;28;20045;-87
2021/06/10 09:24:14;;;;;;;13.45;10.85;;;;;;;;;;5029972;28;20128;-87
2021/06/10 09:26:45;;;;;;;12.10;10.10;;;;;;;;;;5031445;28;20049;-86
2021/06/10 09:29:13;;;;;;;15.77;10.80;;;;;;;;;;5031217;28;20399;-88
2021/06/10 09:31:43;;;;;;;10.95;9.45;;;;;;;;;;5029073;28;20053;-87
2021/06/10 09:34:16;;;;;;;12.38;9.90;;;;;;;;;;5026937;28;20064;-87
2021/06/10 09:36:49;;;;;;;10.00;8.35;;;;;;;;;;5027748;28;20446;-86
2021/06/10 09:39:18;;;;;;;10.45;9.13;;;;;;;;;;5027869;28;20038;-87
2021/06/10 09:42:05;;;;;;;9.70;8.57;;;;;;;;;;5028603;28;20505;-88
2021/06/10 09:44:40;;;;;;;11.82;9.15;;;;;;;;;;5029642;28;20045;-88
2021/06/10 09:47:09;;;;;;;11.68;9.40;;;;;;;;;;5026578;28;20049;-87
2021/06/10 09:49:38;;;;;;;11.93;9.70;;;;;;;;;;5029257;28;20710;-88
2021/06/10 09:52:06;;;;;;;9.93;8.90;;;;;;;;;;5029394;28;20166;-87
2021/06/10 09:54:42;;;;;;;12.30;9.65;;;;;;;;;;5027954;28;20081;-87
2021/06/10 09:57:13;;;;;;;11.65;9.15;;;;;;;;;;5027563;28;20501;-85
2021/06/10 09:59:52;;;;;;;12.38;9.73;;;;;;;;;;5028945;28;20049;-85
2021/06/10 10:02:25;;;;;;;10.80;8.77;;;;;;;;;;5026548;28;20316;-88
2021/06/10 10:04:57;;;;;;;9.82;8.32;;;;;;;;;;5024095;28;20115;-86
2021/06/10 10:07:27;;;;;;;11.30;8.10;;;;;;;;;;5027912;28;20054;-87
2021/06/10 10:09:59;;;;;;;9.30;7.90;;;;;;;;;;5029715;28;20147;-88
2021/06/10 10:12:30;;;;;;;9.55;6.30;;;;;;;;;;5026972;28;20054;-89
2021/06/10 10:14:59;;;;;;;9.73;7.57;;;;;;;;;;5029110;28;20081;-89
2021/06/10 10:17:28;;;;;;;6.70;6.00;;;;;;;;;;5025596;28;20481;-88
2021/06/10 10:19:57;;;;;;;7.18;5.30;;;;;;;;;;5025599;28;20061;-88
2021/06/10 10:22:25;;;;;;;7.25;6.55;;;;;;;;;;5030104;28;20049;-86
2021/06/10 10:24:54;;;;;;;8.35;7.13;;;;;;;;;;5026347;28;20425;-89
2021/06/10 10:27:23;;;;;;;9.57;7.20;;;;;;;;;;5032562;28;20065;-89
2021/06/10 10:29:54;;;;;;;7.60;6.85;;;;;;;;;;5034235;28;20045;-90
2021/06/10 10:32:24;;;;;;;8.18;6.45;;;;;;;;;;5034765;28;20053;-89
2021/06/10 10:35:14;;;;;;;7.65;6.15;;;;;;;;;;5028697;28;20046;-90
2021/06/10 10:37:42;;;;;;;11.77;7.88;;;;;;;;;;5026754;28;20042;-88
2021/06/10 10:40:11;;;;;;;8.23;7.15;;;;;;;;;;5029976;28;20045;-89
2021/06/10 10:42:40;;;;;;;7.85;7.03;;;;;;;;;;5032437;28;20053;-88
2021/06/10 10:45:14;;;;;;;7.97;6.28;;;;;;;;;;5030951;28;20049;-89
2021/06/10 10:47:47;;;;;;;7.75;6.95;;;;;;;;;;5044926;28;20496;-89
2021/06/10 10:50:18;;;;;;;11.13;6.30;;;;;;;;;;5053826;28;20095;-88
2021/06/10 10:52:53;;;;;;;7.70;6.50;;;;;;;;;;5054229;28;20091;-90
2021/06/10 10:55:27;;;;;;;7.78;6.97;;;;;;;;;;5052200;28;20047;-89
2021/06/10 10:58:03;;;;;;;25.07;7.17;;;;;;;;;;5026095;28;20095;-89
2021/06/10 11:00:49;;;;;;;6.35;5.75;;;;;;;;;;5029229;28;20045;-89
2021/06/10 11:03:18;;;;;;;6.80;5.82;;;;;;;;;;5032155;28;20578;-90
2021/06/10 11:05:47;;;;;;;7.93;6.68;;;;;;;;;;5022676;28;20060;-89
2021/06/10 11:08:15;;;;;;;8.38;6.35;;;;;;;;;;5033593;28;20091;-88
2021/06/10 11:11:01;;;;;;;7.90;6.03;;;;;;;;;;5036597;28;20053;-87
2021/06/10 11:13:30;;;;;;;8.13;6.30;;;;;;;;;;5036184;28;20049;-89
2021/06/10 11:16:01;;;;;;;6.72;5.75;;;;;;;;;;5035289;28;20072;-87
2021/06/10 11:18:42;;;;;;;7.20;6.22;;;;;;;;;;5037137;28;20048;-85
2021/06/10 11:21:11;;;;;;;7.20;5.55;;;;;;;;;;5036780;28;20325;-86
2021/06/10 11:23:39;;;;;;;6.38;5.80;;;;;;;;;;5037895;28;20103;-86
2021/06/10 11:26:15;;;;;;;9.32;6.40;;;;;;;;;;5034169;28;20492;-87
2021/06/10 11:28:43;;;;;;;9.45;7.07;;;;;;;;;;5049064;28;20045;-86
2021/06/10 11:31:17;;;;;;;6.63;6.03;;;;;;;;;;5051715;28;20439;-87
2021/06/10 11:33:45;;;;;;;6.40;5.75;;;;;;;;;;5050701;28;20049;-85
2021/06/10 11:36:13;;;;;;;6.32;5.72;;;;;;;;;;5048167;28;20138;-87
2021/06/10 11:38:44;;;;;;;6.63;5.95;;;;;;;;;;5032659;28;20045;-89
2021/06/10 11:41:13;;;;;;;7.90;6.10;;;;;;;;;;5034064;28;20057;-88
2021/06/10 11:43:42;;;;;;;6.55;5.70;;;;;;;;;;5043859;28;20041;-88
2021/06/10 11:46:31;;;;;;;7.05;6.10;;;;;;;;;;5032159;28;20118;-89
2021/06/10 11:48:59;;;;;;;6.68;5.70;;;;;;;;;;5049930;28;20091;-89
2021/06/10 11:51:28;;;;;;;7.32;6.20;;;;;;;;;;5050458;28;20041;-89
2021/06/10 11:53:57;;;;;;;8.10;5.85;;;;;;;;;;5050537;28;20098;-90
2021/06/10 11:56:26;;;;;;;7.57;5.97;;;;;;;;;;5041403;28;20053;-90
2021/06/10 11:58:55;;;;;;;7.65;6.05;;;;;;;;;;5025819;28;20092;-91
2021/06/10 12:01:24;;;;;;;7.20;6.20;;;;;;;;;;5028033;28;20054;-89
2021/06/10 12:03:53;;;;;;;8.80;6.70;;;;;;;;;;5023049;28;20152;-90
2021/06/10 12:06:22;;;;;;;6.85;6.15;;;;;;;;;;5025195;28;20059;-89
2021/06/10 12:08:50;;;;;;;6.18;5.60;;;;;;;;;;5050734;28;20061;-90
2021/06/10 12:11:21;;;;;;;6.95;5.80;;;;;;;;;;5050781;28;20053;-91
2021/06/10 12:13:52;;;;;;;9.13;6.43;;;;;;;;;;5048485;28;20049;-91
2021/06/10 12:16:21;;;;;;;6.72;5.93;;;;;;;;;;5049205;28;20037;-89
2021/06/10 12:18:51;;;;;;;6.70;5.82;;;;;;;;;;5051470;28;20115;-89
2021/06/10 12:21:22;;;;;;;9.55;6.07;;;;;;;;;;5047683;28;20124;-89
2021/06/10 12:23:51;;;;;;;7.22;5.85;;;;;;;;;;5050740;28;20546;-88
2021/06/10 12:26:21;;;;;;;6.65;5.93;;;;;;;;;;5042254;28;20040;-89
2021/06/10 12:28:51;;;;;;;6.53;5.85;;;;;;;;;;5029127;28;20556;-90
2021/06/10 12:31:20;;;;;;;10.25;6.30;;;;;;;;;;5023223;28;20049;-88
2021/06/10 12:33:54;;;;;;;7.32;6.18;;;;;;;;;;5024258;28;20057;-88
2021/06/10 12:36:24;;;;;;;6.82;5.72;;;;;;;;;;5015749;28;20050;-88
2021/06/10 12:38:54;;;;;;;8.13;5.88;;;;;;;;;;5021010;28;20124;-89
2021/06/10 12:41:25;;;;;;;6.05;5.47;;;;;;;;;;5021374;28;20045;-89
2021/06/10 12:44:05;;;;;;;8.70;5.30;;;;;;;;;;3619288;28;10024497;-89
2021/06/10 12:46:47;;;;;;;6.45;5.85;;;;;;;;;;2424081;28;10002083;-88
2021/06/10 12:49:17;;;;;;;6.07;5.47;;;;;;;;;;5028300;28;20124;-89
2021/06/10 12:51:48;;;;;;;6.97;5.60;;;;;;;;;;5028932;28;20046;-90
2021/06/10 12:54:18;;;;;;;6.45;5.72;;;;;;;;;;5031671;28;20064;-88
2021/06/10 12:56:48;;;;;;;8.15;5.22;;;;;;;;;;5009385;28;20124;-87
2021/06/10 12:59:21;;;;;;;6.93;6.07;;;;;;;;;;5011446;28;20046;-88
2021/06/10 13:02:16;;;;;;;9.65;6.63;;;;;;;;;;5030437;28;20053;-90
2021/06/10 13:04:45;;;;;;;6.13;5.20;;;;;;;;;;5030606;28;20136;-87
2021/06/10 13:07:28;;;;;;;7.55;5.95;;;;;;;;;;5029957;28;20041;-88
2021/06/10 13:09:57;;;;;;;6.38;5.40;;;;;;;;;;5026070;28;20084;-88
2021/06/10 13:12:27;;;;;;;5.95;5.35;;;;;;;;;;5031189;28;20045;-89
2021/06/10 13:15:10;;;;;;;6.13;5.50;;;;;;;;;;5032387;28;20058;-86
2021/06/10 13:17:45;;;;;;;8.32;5.65;;;;;;;;;;5029842;28;20057;-89
2021/06/10 13:20:14;;;;;;;5.97;5.07;;;;;;;;;;5030720;28;20048;-89
2021/06/10 13:22:43;;;;;;;6.10;5.50;;;;;;;;;;5030331;28;20037;-88
2021/06/10 13:25:12;;;;;;;7.93;5.53;;;;;;;;;;5031029;28;20060;-89
2021/06/10 13:27:41;;;;;;;10.02;5.55;;;;;;;;;;5031096;28;20042;-89
2021/06/10 13:30:20;;;;;;;7.03;4.95;;;;;;;;;;5032217;28;20093;-88
2021/06/10 13:32:50;;;;;;;6.07;5.30;;;;;;;;;;5028743;28;20580;-88
2021/06/10 13:35:25;;;;;;;6.05;5.03;;;;;;;;;;5030932;28;20060;-89
2021/06/10 13:37:55;;;;;;;5.53;4.87;;;;;;;;;;5044739;28;20140;-89
2021/06/10 13:40:24;;;;;;;5.68;5.18;;;;;;;;;;5044587;28;20041;-91
2021/06/10 13:42:52;;;;;;;6.15;5.55;;;;;;;;;;5037366;28;20539;-89
2021/06/10 13:45:22;;;;;;;5.25;4.75;;;;;;;;;;5034913;28;20473;-90
2021/06/10 13:47:52;;;;;;;6.38;4.93;;;;;;;;;;5041235;28;20057;-89
2021/06/10 13:50:21;;;;;;;5.38;4.88;;;;;;;;;;5052508;28;20084;-90
2021/06/10 13:52:49;;;;;;;5.57;5.05;;;;;;;;;;5052715;28;20485;-90
2021/06/10 13:55:19;;;;;;;5.72;4.70;;;;;;;;;;5052493;28;20131;-89
2021/06/10 13:57:47;;;;;;;7.68;4.97;;;;;;;;;;5050794;28;20068;-90
2021/06/10 14:00:19;;;;;;;8.25;5.30;;;;;;;;;;5056812;28;20037;-90
2021/06/10 14:02:48;;;;;;;6.75;4.78;;;;;;;;;;5052706;28;20436;-88
2021/06/10 14:05:16;;;;;;;5.72;4.60;;;;;;;;;;5050201;28;20408;-89
2021/06/10 14:07:46;;;;;;;4.95;4.45;;;;;;;;;;5043870;28;20053;-91
2021/06/10 14:10:20;;;;;;;5.30;4.80;;;;;;;;;;5044352;28;20509;-89
2021/06/10 14:12:49;;;;;;;5.70;4.43;;;;;;;;;;5049804;28;20076;-89
2021/06/10 14:15:18;;;;;;;5.78;4.90;;;;;;;;;;5048436;28;20045;-89
2021/06/10 14:17:46;;;;;;;7.28;4.60;;;;;;;;;;5050662;28;20045;-88
2021/06/10 14:20:15;;;;;;;6.07;4.82;;;;;;;;;;5050352;28;20041;-88
2021/06/10 14:22:43;;;;;;;5.82;5.13;;;;;;;;;;5047349;28;20132;-88
2021/06/10 14:25:12;;;;;;;5.38;4.88;;;;;;;;;;5051198;28;20060;-89
2021/06/10 14:27:42;;;;;;;5.43;4.68;;;;;;;;;;5050210;28;20045;-89
2021/06/10 14:30:13;;;;;;;5.55;4.97;;;;;;;;;;5049545;28;20072;-88
2021/06/10 14:32:42;;;;;;;6.07;4.97;;;;;;;;;;5048846;28;20566;-89
2021/06/10 14:35:10;;;;;;;7.35;5.18;;;;;;;;;;5042510;28;20045;-88
2021/06/10 14:37:40;;;;;;;6.28;4.65;;;;;;;;;;5051128;28;20544;-89
2021/06/10 14:40:10;;;;;;;5.30;4.90;;;;;;;;;;5049423;28;20489;-89
2021/06/10 14:42:38;;;;;;;5.60;5.05;;;;;;;;;;5034602;28;20050;-87